createdAt,value
2022-08-03T00:02:20.370Z,18.69
2022-08-03T00:04:48.764Z,18.66
2022-08-03T00:07:17.494Z,18.64
2022-08-03T00:09:46.100Z,18.63
2022-08-03T00:12:14.890Z,18.63
2022-08-03T00:14:43.484Z,18.62
2022-08-03T00:17:12.624Z,18.62
2022-08-03T00:19:41.227Z,18.63
2022-08-03T00:22:09.683Z,18.62
2022-08-03T00:24:37.858Z,18.60
2022-08-03T00:27:06.186Z,18.57
2022-08-03T00:29:34.594Z,18.56
2022-08-03T00:32:24.776Z,18.54
2022-08-03T00:34:57.528Z,18.53
2022-08-03T00:37:41.300Z,18.51
2022-08-03T00:40:13.563Z,18.47
2022-08-03T00:43:09.084Z,18.47
2022-08-03T00:45:40.970Z,18.46
2022-08-03T00:48:19.759Z,18.45
2022-08-03T00:51:00.391Z,18.40
2022-08-03T00:53:29.768Z,18.38
2022-08-03T00:55:58.428Z,18.35
2022-08-03T00:58:26.928Z,18.34
2022-08-03T01:00:55.530Z,18.32
2022-08-03T01:03:24.310Z,18.29
2022-08-03T01:06:13.117Z,18.29
2022-08-03T01:09:04.907Z,18.26
2022-08-03T01:12:24.080Z,18.23
2022-08-03T01:15:06.017Z,18.20
2022-08-03T01:17:51.360Z,18.18
2022-08-03T01:20:22.290Z,18.15
2022-08-03T01:23:09.179Z,18.12
2022-08-03T01:26:06.250Z,18.09
2022-08-03T01:28:35.174Z,18.08
2022-08-03T01:31:09.283Z,18.08
2022-08-03T01:33:44.483Z,18.06
2022-08-03T01:36:28.184Z,18.04
2022-08-03T01:39:01.791Z,18.03
2022-08-03T01:41:36.556Z,18.00
2022-08-03T01:44:29.139Z,18.02
2022-08-03T01:47:01.390Z,18.02
2022-08-03T01:49:32.263Z,18.01
2022-08-03T01:52:04.963Z,18.03
2022-08-03T01:54:43.362Z,18.03
2022-08-03T01:57:12.702Z,18.03
2022-08-03T01:59:43.330Z,18.02
2022-08-03T02:02:15.941Z,18.01
2022-08-03T02:05:03.621Z,18.01
2022-08-03T02:07:32.683Z,17.99
2022-08-03T02:10:02.757Z,17.96
2022-08-03T02:12:34.199Z,17.96
2022-08-03T02:15:04.790Z,17.95
2022-08-03T02:17:39.044Z,17.93
2022-08-03T02:20:10.882Z,17.93
2022-08-03T02:22:42.495Z,17.91
2022-08-03T02:25:16.005Z,17.90
2022-08-03T02:27:59.857Z,17.86
2022-08-03T02:30:38.644Z,17.85
2022-08-03T02:33:28.207Z,17.84
2022-08-03T02:35:57.736Z,17.83
2022-08-03T02:38:40.485Z,17.82
2022-08-03T02:41:18.832Z,17.82
2022-08-03T02:44:06.322Z,17.80
2022-08-03T02:46:40.031Z,17.77
2022-08-03T02:49:40.478Z,17.75
2022-08-03T02:51:58.797Z,17.73
2022-08-03T02:54:28.833Z,17.72
2022-08-03T02:56:59.716Z,17.70
2022-08-03T02:59:28.380Z,17.71
2022-08-03T03:01:57.053Z,17.72
2022-08-03T03:04:28.459Z,17.73
2022-08-03T03:07:04.393Z,17.73
2022-08-03T03:09:40.045Z,17.75
2022-08-03T03:12:11.732Z,17.74
2022-08-03T03:14:40.316Z,17.73
2022-08-03T03:17:10.887Z,17.71
2022-08-03T03:19:41.605Z,17.70
2022-08-03T03:22:10.444Z,17.72
2022-08-03T03:24:41.137Z,17.73
2022-08-03T03:27:09.998Z,17.73
2022-08-03T03:29:45.323Z,17.74
2022-08-03T03:32:14.023Z,17.73
2022-08-03T03:34:44.323Z,17.73
2022-08-03T03:37:13.091Z,17.71
2022-08-03T03:39:41.631Z,17.69
2022-08-03T03:42:10.136Z,17.69
2022-08-03T03:44:38.525Z,17.68
2022-08-03T03:47:07.074Z,17.69
2022-08-03T03:49:35.876Z,17.70
2022-08-03T03:52:04.345Z,17.72
2022-08-03T03:54:46.332Z,17.70
2022-08-03T03:57:14.765Z,17.71
2022-08-03T03:59:43.935Z,17.71
2022-08-03T04:02:13.837Z,17.71
2022-08-03T04:04:59.906Z,17.72
2022-08-03T04:07:46.802Z,17.72
2022-08-03T04:10:38.658Z,17.72
2022-08-03T04:13:11.128Z,17.71
2022-08-03T04:15:43.533Z,17.71
2022-08-03T04:18:15.105Z,17.72
2022-08-03T04:20:48.788Z,17.76
2022-08-03T04:23:22.434Z,17.80
2022-08-03T04:25:52.999Z,17.84
2022-08-03T04:28:31.185Z,17.89
2022-08-03T04:31:01.505Z,17.93
2022-08-03T04:33:33.564Z,17.97
2022-08-03T04:36:07.711Z,18.01
2022-08-03T04:38:43.974Z,18.00
2022-08-03T04:41:12.779Z,17.96
2022-08-03T04:43:41.858Z,18.03
2022-08-03T04:46:10.471Z,18.07
2022-08-03T04:48:42.304Z,18.11
2022-08-03T04:51:13.071Z,18.13
2022-08-03T04:53:41.666Z,18.16
2022-08-03T04:56:10.334Z,18.24
2022-08-03T04:58:38.792Z,18.30
2022-08-03T05:01:07.460Z,18.39
2022-08-03T05:03:35.815Z,18.47
2022-08-03T05:06:09.713Z,18.56
2022-08-03T05:08:46.411Z,18.62
2022-08-03T05:11:17.775Z,18.71
2022-08-03T05:13:49.556Z,18.80
2022-08-03T05:16:18.031Z,18.91
2022-08-03T05:18:47.080Z,19.00
2022-08-03T05:21:16.821Z,19.11
2022-08-03T05:23:45.924Z,19.21
2022-08-03T05:26:14.397Z,19.30
2022-08-03T05:28:51.385Z,19.41
2022-08-03T05:31:20.266Z,19.51
2022-08-03T05:33:49.404Z,19.61
2022-08-03T05:36:17.978Z,19.69
2022-08-03T05:38:46.520Z,19.79
2022-08-03T05:41:21.490Z,19.91
2022-08-03T05:43:56.601Z,20.03
2022-08-03T05:46:25.338Z,20.15
2022-08-03T05:48:54.227Z,20.28
2022-08-03T05:51:22.728Z,20.43
2022-08-03T05:53:51.159Z,20.60
2022-08-03T05:56:22.627Z,20.76
2022-08-03T05:58:52.181Z,20.97
2022-08-03T06:01:22.949Z,21.17
2022-08-03T06:03:52.102Z,21.39
2022-08-03T06:06:20.656Z,21.58
2022-08-03T06:08:49.115Z,21.78
2022-08-03T06:11:17.758Z,21.96
2022-08-03T06:13:46.290Z,22.12
2022-08-03T06:16:14.648Z,22.30
2022-08-03T06:18:44.157Z,22.49
2022-08-03T06:21:15.351Z,22.64
2022-08-03T06:23:52.817Z,22.77
2022-08-03T06:26:25.408Z,22.92
2022-08-03T06:28:54.930Z,23.07
2022-08-03T06:31:33.107Z,23.23
2022-08-03T06:34:32.656Z,23.40
2022-08-03T06:36:58.627Z,23.57
2022-08-03T06:39:30.646Z,23.64
2022-08-03T06:41:59.214Z,23.83
2022-08-03T06:44:27.727Z,23.90
2022-08-03T06:46:56.473Z,24.04
2022-08-03T06:49:24.999Z,24.18
2022-08-03T06:52:03.277Z,24.23
2022-08-03T06:54:34.896Z,24.36
2022-08-03T06:57:03.642Z,24.48
2022-08-03T07:00:10.872Z,24.64
2022-08-03T07:02:20.616Z,24.79
2022-08-03T07:04:52.202Z,24.87
2022-08-03T07:07:20.826Z,25.04
2022-08-03T07:09:57.100Z,25.21
2022-08-03T07:12:28.625Z,25.42
2022-08-03T07:15:01.181Z,25.58
2022-08-03T07:17:32.189Z,25.75
2022-08-03T07:20:01.571Z,25.93
2022-08-03T07:22:30.127Z,26.15
2022-08-03T07:24:59.101Z,26.30
2022-08-03T07:27:30.357Z,26.46
2022-08-03T07:29:59.978Z,26.59
2022-08-03T07:32:31.613Z,26.71
2022-08-03T07:35:01.419Z,26.81
2022-08-03T07:37:31.129Z,26.95
2022-08-03T07:40:03.335Z,27.07
2022-08-03T07:42:31.896Z,27.19
2022-08-03T07:45:00.611Z,27.30
2022-08-03T07:47:35.465Z,27.45
2022-08-03T07:50:05.426Z,27.51
2022-08-03T07:52:53.111Z,27.65
2022-08-03T07:55:24.273Z,27.80
2022-08-03T07:58:17.237Z,27.91
2022-08-03T08:00:47.625Z,28.04
2022-08-03T08:03:15.713Z,28.14
2022-08-03T08:05:43.943Z,28.24
2022-08-03T08:08:12.058Z,28.36
2022-08-03T08:10:40.524Z,28.47
2022-08-03T08:13:08.510Z,28.58
2022-08-03T08:15:36.479Z,28.69
2022-08-03T08:18:11.295Z,28.66
2022-08-03T08:20:39.856Z,28.68
2022-08-03T08:23:37.673Z,28.72
2022-08-03T08:25:58.955Z,28.82
2022-08-03T08:28:32.650Z,28.91
2022-08-03T08:31:01.621Z,29.01
2022-08-03T08:33:48.010Z,29.11
2022-08-03T08:36:18.742Z,29.22
2022-08-03T08:38:47.079Z,29.34
2022-08-03T08:41:16.504Z,29.44
2022-08-03T08:43:44.765Z,29.51
2022-08-03T08:46:23.339Z,29.53
2022-08-03T08:48:54.164Z,29.65
2022-08-03T08:51:23.732Z,29.72
2022-08-03T08:54:13.761Z,29.77
2022-08-03T08:56:42.293Z,29.78
2022-08-03T08:59:10.738Z,29.81
2022-08-03T09:01:39.178Z,29.92
2022-08-03T09:04:11.353Z,29.94
2022-08-03T09:06:39.495Z,29.97
2022-08-03T09:09:08.488Z,30.00
2022-08-03T09:11:53.401Z,30.00
2022-08-03T09:14:36.906Z,30.02
2022-08-03T09:17:17.426Z,29.99
2022-08-03T09:20:08.905Z,29.92
2022-08-03T09:22:37.503Z,29.94
2022-08-03T09:25:23.934Z,29.91
2022-08-03T09:27:53.420Z,29.88
2022-08-03T09:30:34.674Z,29.87
2022-08-03T09:33:16.429Z,29.90
2022-08-03T09:35:55.358Z,29.89
2022-08-03T09:38:27.601Z,29.86
2022-08-03T09:41:00.661Z,29.83
2022-08-03T09:43:30.176Z,29.76
2022-08-03T09:46:07.548Z,29.71
2022-08-03T09:48:37.541Z,29.68
2022-08-03T09:51:32.329Z,29.61
2022-08-03T09:54:00.281Z,29.52
2022-08-03T09:56:48.576Z,29.37
2022-08-03T09:59:29.886Z,29.24
2022-08-03T10:01:59.782Z,29.11
2022-08-03T10:04:28.476Z,29.00
2022-08-03T10:07:11.768Z,28.84
2022-08-03T10:09:40.296Z,28.75
2022-08-03T10:12:14.124Z,28.79
2022-08-03T10:14:45.404Z,28.76
2022-08-03T10:17:13.966Z,28.73
2022-08-03T10:19:42.828Z,28.62
2022-08-03T10:22:16.530Z,28.51
2022-08-03T10:25:10.697Z,28.41
2022-08-03T10:27:46.417Z,28.36
2022-08-03T10:30:15.461Z,28.32
2022-08-03T10:32:49.819Z,28.29
2022-08-03T10:35:21.672Z,28.30
2022-08-03T10:37:59.564Z,28.31
2022-08-03T10:40:52.620Z,28.40
2022-08-03T10:43:35.687Z,28.56
2022-08-03T10:46:07.061Z,28.58
2022-08-03T10:48:36.945Z,28.52
2022-08-03T10:51:06.863Z,28.44
2022-08-03T10:53:44.056Z,28.38
2022-08-03T10:56:51.730Z,28.38
2022-08-03T10:59:27.775Z,28.32
2022-08-03T11:02:00.759Z,28.33
2022-08-03T11:04:30.977Z,28.33
2022-08-03T11:07:17.614Z,28.39
2022-08-03T11:09:51.425Z,28.46
2022-08-03T11:12:38.273Z,28.45
2022-08-03T11:15:09.677Z,28.48
2022-08-03T11:17:46.746Z,28.58
2022-08-03T11:21:02.529Z,28.54
2022-08-03T11:24:02.759Z,28.66
2022-08-03T11:26:35.120Z,28.71
2022-08-03T11:29:30.429Z,28.65
2022-08-03T11:31:59.067Z,28.58
2022-08-03T11:34:27.801Z,28.56
2022-08-03T11:37:31.401Z,28.52
2022-08-03T11:40:02.889Z,28.51
2022-08-03T11:42:36.968Z,28.49
2022-08-03T11:45:09.283Z,28.43
2022-08-03T11:47:50.942Z,28.45
2022-08-03T11:50:20.269Z,28.44
2022-08-03T11:52:49.994Z,28.49
2022-08-03T11:55:21.971Z,28.50
2022-08-03T11:59:10.936Z,28.50
2022-08-03T12:00:38.791Z,28.55
2022-08-03T12:03:11.861Z,28.60
2022-08-03T12:05:54.941Z,28.60
2022-08-03T12:08:28.997Z,28.56
2022-08-03T12:11:00.073Z,28.55
2022-08-03T12:14:27.419Z,28.62
2022-08-03T12:16:29.686Z,28.69
2022-08-03T12:19:08.297Z,28.78
2022-08-03T12:21:36.720Z,28.77
2022-08-03T12:24:06.502Z,28.77
2022-08-03T12:26:59.023Z,28.84
2022-08-03T12:29:28.608Z,28.87
2022-08-03T12:31:57.178Z,28.83
2022-08-03T12:34:25.202Z,28.78
2022-08-03T12:37:00.210Z,28.76
2022-08-03T12:39:31.052Z,28.78
2022-08-03T12:41:59.579Z,28.75
2022-08-03T12:44:37.796Z,28.75
2022-08-03T12:47:06.909Z,28.78
2022-08-03T12:49:53.027Z,28.86
2022-08-03T12:52:23.655Z,28.89
2022-08-03T12:54:59.871Z,28.96
2022-08-03T12:57:44.368Z,29.15
2022-08-03T13:00:28.673Z,29.36
2022-08-03T13:03:38.819Z,29.38
2022-08-03T13:06:04.082Z,29.44
2022-08-03T13:08:32.537Z,29.43
2022-08-03T13:11:00.523Z,29.39
2022-08-03T13:13:47.657Z,29.47
2022-08-03T13:16:19.378Z,29.52
2022-08-03T13:18:48.201Z,29.46
2022-08-03T13:21:17.663Z,29.32
2022-08-03T13:23:46.436Z,29.26
2022-08-03T13:26:14.986Z,29.19
2022-08-03T13:28:43.055Z,29.13
2022-08-03T13:31:11.320Z,29.10
2022-08-03T13:33:40.808Z,29.13
2022-08-03T13:36:09.293Z,29.13
2022-08-03T13:38:37.320Z,29.13
2022-08-03T13:41:06.301Z,29.20
2022-08-03T13:43:34.344Z,29.45
2022-08-03T13:46:02.351Z,29.62
2022-08-03T13:48:35.946Z,29.74
2022-08-03T13:51:11.727Z,29.71
2022-08-03T13:53:52.669Z,29.71
2022-08-03T13:56:20.837Z,29.65
2022-08-03T13:58:49.112Z,29.57
2022-08-03T14:01:22.732Z,29.51
2022-08-03T14:04:02.948Z,29.42
2022-08-03T14:06:31.568Z,29.37
2022-08-03T14:09:00.721Z,29.35
2022-08-03T14:12:07.320Z,29.28
2022-08-03T14:14:18.004Z,29.29
2022-08-03T14:16:46.405Z,29.28
2022-08-03T14:19:17.955Z,29.23
2022-08-03T14:21:53.025Z,29.27
2022-08-03T14:24:35.129Z,29.22
2022-08-03T14:27:09.046Z,29.17
2022-08-03T14:29:37.982Z,29.27
2022-08-03T14:32:10.922Z,29.31
2022-08-03T14:34:41.035Z,29.30
2022-08-03T14:37:09.576Z,29.29
2022-08-03T14:42:27.048Z,29.55
2022-08-03T14:44:58.881Z,29.65
2022-08-03T14:47:30.747Z,29.71
2022-08-03T14:50:30.779Z,29.74
2022-08-03T14:52:47.618Z,29.80
2022-08-03T14:55:15.649Z,29.71
2022-08-03T14:57:43.636Z,29.74
2022-08-03T15:00:12.535Z,29.73
2022-08-03T15:02:40.590Z,29.60
2022-08-03T15:05:10.806Z,29.62
2022-08-03T15:07:38.897Z,29.71
2022-08-03T15:10:07.690Z,29.78
2022-08-03T15:12:36.152Z,29.80
2022-08-03T15:15:04.383Z,29.87
2022-08-03T15:17:32.888Z,29.94
2022-08-03T15:20:26.522Z,30.01
2022-08-03T15:22:49.096Z,29.89
2022-08-03T15:26:27.839Z,29.80
2022-08-03T15:28:05.796Z,29.84
2022-08-03T15:30:37.015Z,29.90
2022-08-03T15:33:05.893Z,29.93
2022-08-03T15:35:34.398Z,29.91
2022-08-03T15:38:07.296Z,29.90
2022-08-03T15:40:37.657Z,30.04
2022-08-03T15:43:05.716Z,30.12
2022-08-03T15:45:36.223Z,30.04
2022-08-03T15:48:07.952Z,29.93
2022-08-03T15:50:35.994Z,29.86
2022-08-03T15:53:04.704Z,29.80
2022-08-03T15:55:33.229Z,29.82
2022-08-03T15:59:04.662Z,29.88
2022-08-03T16:00:49.890Z,29.88
2022-08-03T16:03:18.125Z,29.85
2022-08-03T16:05:49.253Z,29.77
2022-08-03T16:08:17.685Z,29.67
2022-08-03T16:10:46.767Z,29.56
2022-08-03T16:13:16.919Z,29.50
2022-08-03T16:15:45.304Z,29.46
2022-08-03T16:18:13.658Z,29.39
2022-08-03T16:20:42.277Z,29.35
2022-08-03T16:23:12.716Z,29.25
2022-08-03T16:25:44.428Z,29.16
2022-08-03T16:28:17.977Z,29.14
2022-08-03T16:30:47.861Z,29.35
2022-08-03T16:33:17.933Z,29.48
2022-08-03T16:35:49.681Z,29.62
2022-08-03T16:38:19.277Z,29.78
2022-08-03T16:40:52.293Z,29.93
2022-08-03T16:43:23.335Z,30.12
2022-08-03T16:45:52.011Z,30.15
2022-08-03T16:48:20.620Z,30.14
2022-08-03T16:50:49.171Z,30.14
2022-08-03T16:53:33.093Z,30.19
2022-08-03T16:56:10.133Z,30.26
2022-08-03T16:58:42.117Z,30.31
2022-08-03T17:01:24.182Z,30.40
2022-08-03T17:04:04.637Z,30.47
2022-08-03T17:06:45.030Z,30.52
2022-08-03T17:09:18.969Z,30.58
2022-08-03T17:11:52.020Z,30.49
2022-08-03T17:14:23.889Z,30.39
2022-08-03T17:17:01.069Z,30.34
2022-08-03T17:19:35.099Z,30.38
2022-08-03T17:22:15.957Z,30.32
2022-08-03T17:24:55.039Z,30.25
2022-08-03T17:28:49.454Z,30.19
2022-08-03T17:30:25.325Z,30.17
2022-08-03T17:32:57.417Z,30.16
2022-08-03T17:35:35.516Z,30.11
2022-08-03T17:38:10.514Z,30.07
2022-08-03T17:40:47.894Z,29.91
2022-08-03T17:44:13.380Z,29.88
2022-08-03T17:46:10.916Z,29.88
2022-08-03T17:48:41.551Z,29.86
2022-08-03T17:51:24.876Z,29.85
2022-08-03T17:54:27.121Z,29.85
2022-08-03T17:57:27.134Z,29.87
2022-08-03T17:59:59.094Z,29.84
2022-08-03T18:03:18.445Z,29.76
2022-08-03T18:06:08.955Z,29.65
2022-08-03T18:08:48.294Z,29.60
2022-08-03T18:11:23.741Z,29.54
2022-08-03T18:14:17.819Z,29.41
2022-08-03T18:16:53.912Z,29.28
2022-08-03T18:20:01.918Z,29.18
2022-08-03T18:22:11.324Z,29.05
2022-08-03T18:24:40.947Z,29.04
2022-08-03T18:27:10.996Z,29.02
2022-08-03T18:29:41.389Z,28.99
2022-08-03T18:32:13.721Z,28.99
2022-08-03T18:34:54.123Z,28.98
2022-08-03T18:37:26.221Z,28.79
2022-08-03T18:39:58.514Z,28.57
2022-08-03T18:42:28.550Z,28.35
2022-08-03T18:45:14.967Z,28.17
2022-08-03T18:47:56.100Z,27.96
2022-08-03T18:50:55.080Z,27.80
2022-08-03T18:54:04.089Z,27.61
2022-08-03T18:56:50.129Z,27.45
2022-08-03T18:59:52.532Z,27.29
2022-08-03T19:02:48.869Z,27.16
2022-08-03T19:05:24.740Z,27.06
2022-08-03T19:08:28.789Z,26.94
2022-08-03T19:11:02.794Z,26.91
2022-08-03T19:13:50.159Z,26.81
2022-08-03T19:16:35.215Z,26.71
2022-08-03T19:19:14.427Z,26.60
2022-08-03T19:21:43.345Z,26.50
2022-08-03T19:24:11.757Z,26.42
2022-08-03T19:26:41.640Z,26.34
2022-08-03T19:29:15.144Z,26.25
2022-08-03T19:31:59.605Z,26.16
2022-08-03T19:34:32.911Z,26.09
2022-08-03T19:37:01.642Z,26.00
2022-08-03T19:39:31.732Z,25.91
2022-08-03T19:45:11.450Z,25.71
2022-08-03T19:48:09.996Z,25.60
2022-08-03T19:50:44.425Z,25.50
2022-08-03T19:53:16.886Z,25.40
2022-08-03T19:55:49.029Z,25.31
2022-08-03T19:58:28.523Z,25.24
2022-08-03T20:00:57.599Z,25.16
2022-08-03T20:03:43.350Z,25.06
2022-08-03T20:06:16.887Z,25.00
2022-08-03T20:08:45.672Z,24.91
2022-08-03T20:11:20.095Z,24.85
2022-08-03T20:13:57.339Z,24.78
2022-08-03T20:16:26.143Z,24.71
2022-08-03T20:18:54.532Z,24.66
2022-08-03T20:21:28.531Z,24.62
2022-08-03T20:24:23.875Z,24.54
2022-08-03T20:26:57.836Z,24.50
2022-08-03T20:30:06.600Z,24.45
2022-08-03T20:32:35.829Z,24.41
2022-08-03T20:35:04.402Z,24.39
2022-08-03T20:37:38.712Z,24.34
2022-08-03T20:40:10.641Z,24.31
2022-08-03T20:42:39.315Z,24.26
2022-08-03T20:45:13.987Z,24.22
2022-08-03T20:47:57.228Z,24.18
2022-08-03T20:50:26.278Z,24.13
2022-08-03T20:52:55.938Z,24.09
2022-08-03T20:55:47.905Z,24.04
2022-08-03T20:58:13.295Z,23.98
2022-08-03T21:00:43.672Z,23.91
2022-08-03T21:03:11.827Z,23.87
2022-08-03T21:05:51.194Z,23.83
2022-08-03T21:08:23.015Z,23.78
2022-08-03T21:10:54.337Z,23.72
2022-08-03T21:13:10.857Z,25.81
2022-08-03T21:13:41.088Z,23.69
2022-08-03T21:16:14.017Z,23.66
2022-08-03T21:19:04.404Z,23.60
2022-08-03T21:21:33.799Z,23.57
2022-08-03T21:24:03.539Z,23.53
2022-08-03T21:26:34.989Z,23.50
2022-08-03T21:29:03.480Z,23.47
2022-08-03T21:31:31.921Z,23.46
2022-08-03T21:34:04.432Z,23.43
2022-08-03T21:36:36.612Z,23.40
2022-08-03T21:39:09.180Z,23.38
2022-08-03T21:41:39.991Z,23.36
2022-08-03T21:44:11.056Z,23.34
2022-08-03T21:46:42.077Z,23.29
2022-08-03T21:49:51.782Z,23.25
2022-08-03T21:52:01.729Z,23.21
2022-08-03T21:54:39.066Z,23.17
2022-08-03T21:57:18.160Z,23.14
2022-08-03T21:59:58.754Z,23.11
2022-08-03T22:02:32.515Z,23.05
2022-08-03T22:05:05.179Z,23.01
2022-08-03T22:07:34.209Z,22.96
2022-08-03T22:10:06.604Z,22.93
2022-08-03T22:12:35.864Z,22.91
2022-08-03T22:15:07.944Z,22.89
2022-08-03T22:17:54.553Z,22.88
2022-08-03T22:20:25.636Z,22.85
2022-08-03T22:23:03.869Z,22.83
2022-08-03T22:25:36.549Z,22.80
2022-08-03T22:28:10.319Z,22.78
2022-08-03T22:30:39.979Z,22.74
2022-08-03T22:33:11.964Z,22.70
2022-08-03T22:35:48.306Z,22.68
2022-08-03T22:38:17.991Z,22.63
2022-08-03T22:40:49.855Z,22.60
2022-08-03T22:43:18.624Z,22.56
2022-08-03T22:46:10.566Z,22.52
2022-08-03T22:48:41.249Z,22.49
2022-08-03T22:51:10.994Z,22.47
2022-08-03T22:53:40.979Z,22.48
2022-08-03T22:56:09.874Z,22.48
2022-08-03T22:58:38.441Z,22.48
2022-08-03T23:01:12.607Z,22.50
2022-08-03T23:03:58.731Z,22.53
2022-08-03T23:06:38.092Z,22.52
2022-08-03T23:09:10.974Z,22.52
2022-08-03T23:11:45.331Z,22.53
2022-08-03T23:14:17.549Z,22.54
2022-08-03T23:16:47.372Z,22.53
2022-08-03T23:19:17.031Z,22.53
2022-08-03T23:22:03.134Z,22.52
2022-08-03T23:24:36.955Z,22.53
2022-08-03T23:27:07.632Z,22.52
2022-08-03T23:29:38.064Z,22.52
2022-08-03T23:32:07.574Z,22.52
2022-08-03T23:34:53.743Z,22.51
2022-08-03T23:37:22.545Z,22.52
2022-08-03T23:39:51.208Z,22.51
2022-08-03T23:42:21.594Z,22.50
2022-08-03T23:44:56.669Z,22.47
2022-08-03T23:47:47.383Z,22.46
2022-08-03T23:50:16.446Z,22.43
2022-08-03T23:53:13.797Z,22.38
2022-08-03T23:56:03.742Z,22.35
2022-08-03T23:59:03.966Z,22.30
